Map

Track Data

SID SEASON NUMBER BASIN SUBBASIN NAME ISO_TIME NATURE LAT LON WMO_WIND WMO_PRES WMO_AGENCY TRACK_TYPE DIST2LAND LANDFALL IFLAG USA_AGENCY USA_ATCF_ID USA_LAT USA_LON USA_RECORD USA_STATUS USA_WIND USA_PRES USA_SSHS USA_R34_NE USA_R34_SE USA_R34_SW USA_R34_NW USA_R50_NE USA_R50_SE USA_R50_SW USA_R50_NW USA_R64_NE USA_R64_SE USA_R64_SW USA_R64_NW USA_POCI USA_ROCI USA_RMW USA_EYE TOKYO_LAT TOKYO_LON TOKYO_GRADE TOKYO_WIND TOKYO_PRES TOKYO_R50_DIR TOKYO_R50_LONG TOKYO_R50_SHORT TOKYO_R30_DIR TOKYO_R30_LONG TOKYO_R30_SHORT TOKYO_LAND CMA_LAT CMA_LON CMA_CAT CMA_WIND CMA_PRES HKO_LAT HKO_LON HKO_CAT HKO_WIND HKO_PRES NEWDELHI_LAT NEWDELHI_LON NEWDELHI_GRADE NEWDELHI_WIND NEWDELHI_PRES NEWDELHI_CI NEWDELHI_DP NEWDELHI_POCI REUNION_LAT REUNION_LON REUNION_TYPE REUNION_WIND REUNION_PRES REUNION_TNUM REUNION_CI REUNION_RMW REUNION_R34_NE REUNION_R34_SE REUNION_R34_SW REUNION_R34_NW REUNION_R50_NE REUNION_R50_SE REUNION_R50_SW REUNION_R50_NW REUNION_R64_NE REUNION_R64_SE REUNION_R64_SW REUNION_R64_NW BOM_LAT BOM_LON BOM_TYPE BOM_WIND BOM_PRES BOM_TNUM BOM_CI BOM_RMW BOM_R34_NE BOM_R34_SE BOM_R34_SW BOM_R34_NW BOM_R50_NE BOM_R50_SE BOM_R50_SW BOM_R50_NW BOM_R64_NE BOM_R64_SE BOM_R64_SW BOM_R64_NW BOM_ROCI BOM_POCI BOM_EYE BOM_POS_METHOD BOM_PRES_METHOD NADI_LAT NADI_LON NADI_CAT NADI_WIND NADI_PRES WELLINGTON_LAT WELLINGTON_LON WELLINGTON_WIND WELLINGTON_PRES DS824_LAT DS824_LON DS824_STAGE DS824_WIND DS824_PRES TD9636_LAT TD9636_LON TD9636_STAGE TD9636_WIND TD9636_PRES TD9635_LAT TD9635_LON TD9635_WIND TD9635_PRES TD9635_ROCI NEUMANN_LAT NEUMANN_LON NEUMANN_CLASS NEUMANN_WIND NEUMANN_PRES MLC_LAT MLC_LON MLC_CLASS MLC_WIND MLC_PRES USA_GUST BOM_GUST BOM_GUST_PER REUNION_GUST REUNION_GUST_PER USA_SEAHGT USA_SEARAD_NE USA_SEARAD_SE USA_SEARAD_SW USA_SEARAD_NW STORM_SPEED STORM_DIR
1909178N21288 1909 31 NA NA NOT_NAMED 1909-06-26 12:00:00 TS 21.0000 -72.0000 30 hurdat_atl main 106 53 O_____________ hurdat_atl AL031909 21.0000 -72.0000 TD 30 -1 11 281
1909178N21288 1909 31 NA NA NOT_NAMED 1909-06-26 15:00:00 TS 21.1029 -72.5598 main 42 0 P_____________ AL031909 21.1029 -72.5598 TD 30 -1 10 281
1909178N21288 1909 31 NA NA NOT_NAMED 1909-06-26 18:00:00 TS 21.2000 -73.1000 30 hurdat_atl main 0 0 O_____________ hurdat_atl AL031909 21.2000 -73.1000 TD 30 -1 10 281
1909178N21288 1909 31 NA NA NOT_NAMED 1909-06-26 21:00:00 TS 21.2923 -73.6077 main 22 22 P_____________ AL031909 21.2923 -73.6077 TD 30 -1 10 282
1909178N21288 1909 31 NA NA NOT_NAMED 1909-06-27 00:00:00 TS 21.4000 -74.1000 30 hurdat_atl main 53 53 O_____________ hurdat_atl AL031909 21.4000 -74.1000 TD 30 -1 10 285
1909178N21288 1909 31 NA NA NOT_NAMED 1909-06-27 03:00:00 TS 21.5424 -74.6075 main 101 93 P_____________ AL031909 21.5424 -74.6075 TD 30 -1 10 288
1909178N21288 1909 31 NA NA NOT_NAMED 1909-06-27 06:00:00 TS 21.7000 -75.1000 30 hurdat_atl main 93 84 O_____________ hurdat_atl AL031909 21.7000 -75.1000 TD 30 -1 9 287
1909178N21288 1909 31 NA NA NOT_NAMED 1909-06-27 09:00:00 TS 21.8198 -75.5579 main 88 84 P_____________ AL031909 21.8198 -75.5579 TD 32 -1 9 290
1909178N21288 1909 31 NA NA NOT_NAMED 1909-06-27 12:00:00 TS 22.0000 -76.0000 35 hurdat_atl main 91 90 O_____________ hurdat_atl AL031909 22.0000 -76.0000 TS 35 0 10 301
1909178N21288 1909 31 NA NA NOT_NAMED 1909-06-27 15:00:00 TS 22.3200 -76.4648 main 91 91 P_____________ AL031909 22.3200 -76.4648 TS 35 0 11 310
1909178N21288 1909 31 NA NA NOT_NAMED 1909-06-27 18:00:00 TS 22.7000 -76.9000 35 hurdat_atl main 113 113 O_____________ hurdat_atl AL031909 22.7000 -76.9000 TS 35 0 10 315
1909178N21288 1909 31 NA NA NOT_NAMED 1909-06-27 21:00:00 TS 23.0422 -77.2505 main 132 98 P_____________ AL031909 23.0422 -77.2505 TS 35 0 10 317
1909178N21288 1909 31 NA NA NOT_NAMED 1909-06-28 00:00:00 TS 23.4000 -77.6000 35 hurdat_atl main 98 44 O_____________ hurdat_atl AL031909 23.4000 -77.6000 TS 35 0 10 316
1909178N21288 1909 31 NA NA NOT_NAMED 1909-06-28 03:00:00 TS 23.7926 -78.0425 main 44 30 P_____________ AL031909 23.7926 -78.0425 TS 37 0 12 314
1909178N21288 1909 31 NA NA NOT_NAMED 1909-06-28 06:00:00 TS 24.2000 -78.5000 40 hurdat_atl main 37 30 O_____________ hurdat_atl AL031909 24.2000 -78.5000 TS 40 0 11 315
1909178N21288 1909 31 NA NA NOT_NAMED 1909-06-28 09:00:00 TS 24.5999 -78.9227 main 40 40 P_____________ AL031909 24.5999 -78.9227 TS 42 0 11 318
1909178N21288 1909 31 NA NA NOT_NAMED 1909-06-28 12:00:00 TS 25.0000 -79.3000 45 hurdat_atl main 92 67 O_____________ hurdat_atl AL031909 25.0000 -79.3000 TS 45 0 10 323
1909178N21288 1909 31 NA NA NOT_NAMED 1909-06-28 15:00:00 TS 25.4231 -79.6131 main 67 20 P_____________ AL031909 25.4231 -79.6131 TS 45 0 10 326
1909178N21288 1909 31 NA NA NOT_NAMED 1909-06-28 18:00:00 TS 25.8000 -79.9000 45 hurdat_atl main 20 0 O_____________ hurdat_atl AL031909 25.8000 -79.9000 TS 45 0 9 323
1909178N21288 1909 31 NA NA NOT_NAMED 1909-06-28 20:00:00 TS 26.0000 -80.1000 45 hurdat_atl main 0 0 O_____________ hurdat_atl AL031909 26.0000 -80.1000 L TS 45 0 8 319
1909178N21288 1909 31 NA NA NOT_NAMED 1909-06-28 21:00:00 TS 26.1140 -80.2000 main 0 0 P_____________ AL031909 26.1140 -80.2000 TS 43 0 9 324
1909178N21288 1909 31 NA NA NOT_NAMED 1909-06-29 00:00:00 TS 26.5000 -80.5000 40 hurdat_atl main 0 0 O_____________ hurdat_atl AL031909 26.5000 -80.5000 TS 40 0 10 326
1909178N21288 1909 31 NA NA NOT_NAMED 1909-06-29 03:00:00 TS 26.9025 -80.8001 main 0 0 P_____________ AL031909 26.9025 -80.8001 TS 37 0 10 326
1909178N21288 1909 31 NA NA NOT_NAMED 1909-06-29 06:00:00 TS 27.3000 -81.1000 35 hurdat_atl main 0 0 O_____________ hurdat_atl AL031909 27.3000 -81.1000 TS 35 0 9 325
1909178N21288 1909 31 NA NA NOT_NAMED 1909-06-29 09:00:00 TS 27.6800 -81.4075 main 0 0 P_____________ AL031909 27.6800 -81.4075 TS 35 0 9 323
1909178N21288 1909 31 NA NA NOT_NAMED 1909-06-29 12:00:00 TS 28.0000 -81.7000 35 hurdat_atl main 0 0 O_____________ hurdat_atl AL031909 28.0000 -81.7000 TS 35 0 7 318
1909178N21288 1909 31 NA NA NOT_NAMED 1909-06-29 15:00:00 TS 28.2073 -81.9430 main 0 0 P_____________ AL031909 28.2073 -81.9430 TS 35 0 6 312
1909178N21288 1909 31 NA NA NOT_NAMED 1909-06-29 18:00:00 TS 28.4000 -82.2000 35 hurdat_atl main 0 0 O_____________ hurdat_atl AL031909 28.4000 -82.2000 TS 35 0 7 312
1909178N21288 1909 31 NA NA NOT_NAMED 1909-06-29 21:00:00 TS 28.6926 -82.5498 main 0 0 P_____________ AL031909 28.6926 -82.5498 TS 35 0 9 314
1909178N21288 1909 31 NA GM NOT_NAMED 1909-06-30 00:00:00 TS 29.0000 -82.9000 35 hurdat_atl main 9 0 O_____________ hurdat_atl AL031909 29.0000 -82.9000 TS 35 0 8 317
1909178N21288 1909 31 NA GM NOT_NAMED 1909-06-30 03:00:00 TS 29.2573 -83.1579 main 9 0 P_____________ AL031909 29.2573 -83.1579 TS 35 0 7 319
1909178N21288 1909 31 NA GM NOT_NAMED 1909-06-30 06:00:00 TS 29.5000 -83.4000 35 hurdat_atl main 0 0 O_____________ hurdat_atl AL031909 29.5000 -83.4000 TS 35 0 7 316
1909178N21288 1909 31 NA GM NOT_NAMED 1909-06-30 09:00:00 TS 29.7734 -83.7283 main 9 9 P_____________ AL031909 29.7734 -83.7283 TS 35 0 7 314
1909178N21288 1909 31 NA GM NOT_NAMED 1909-06-30 12:00:00 TS 30.0000 -84.0000 35 hurdat_atl main 11 0 O_____________ hurdat_atl AL031909 30.0000 -84.0000 TS 35 0 6 315
1909178N21288 1909 31 NA GM NOT_NAMED 1909-06-30 14:00:00 TS 30.1000 -84.1000 35 hurdat_atl main 0 0 O_____________ hurdat_atl AL031909 30.1000 -84.1000 L TS 35 0 4 316
1909178N21288 1909 31 NA GM NOT_NAMED 1909-06-30 15:00:00 TS 30.1342 -84.1518 main 0 0 P_____________ AL031909 30.1342 -84.1518 TS 33 -1 3 300
1909178N21288 1909 31 NA NA NOT_NAMED 1909-06-30 18:00:00 TS 30.2000 -84.3000 30 hurdat_atl main 0 0 O_____________ hurdat_atl AL031909 30.2000 -84.3000 TD 30 -1 3 305
1909178N21288 1909 31 NA NA NOT_NAMED 1909-06-30 21:00:00 TS 30.2954 -84.4162 main 0 0 P_____________ AL031909 30.2954 -84.4162 TD 30 -1 3 319
1909178N21288 1909 31 NA NA NOT_NAMED 1909-07-01 00:00:00 TS 30.4000 -84.5000 30 hurdat_atl main 0 0 O_____________ hurdat_atl AL031909 30.4000 -84.5000 TD 30 -1 2 328
1909178N21288 1909 31 NA NA NOT_NAMED 1909-07-01 03:00:00 TS 30.4850 -84.5576 main 0 0 P_____________ AL031909 30.4850 -84.5576 TD 30 -1 2 335
1909178N21288 1909 31 NA NA NOT_NAMED 1909-07-01 06:00:00 TS 30.6000 -84.6000 30 hurdat_atl main 0 0 O_____________ hurdat_atl AL031909 30.6000 -84.6000 TD 30 -1 3 345
1909178N21288 1909 31 NA NA NOT_NAMED 1909-07-01 09:00:00 TS 30.7925 -84.6649 main 0 0 P_____________ AL031909 30.7925 -84.6649 TD 30 -1 4 348
1909178N21288 1909 31 NA NA NOT_NAMED 1909-07-01 12:00:00 TS 31.0000 -84.7000 30 hurdat_atl main 0 0 O_____________ hurdat_atl AL031909 31.0000 -84.7000 TD 30 -1 4 0
1909178N21288 1909 31 NA NA NOT_NAMED 1909-07-01 15:00:00 TS 31.1575 -84.6800 main 0 0 P_____________ AL031909 31.1575 -84.6800 TD 27 -1 3 16
1909178N21288 1909 31 NA NA NOT_NAMED 1909-07-01 18:00:00 TS 31.3000 -84.6000 25 hurdat_atl main 0 0 O_____________ hurdat_atl AL031909 31.3000 -84.6000 TD 25 -1 3 31
1909178N21288 1909 31 NA NA NOT_NAMED 1909-07-01 21:00:00 TS 31.4500 -84.4799 main 0 0 P_____________ AL031909 31.4500 -84.4799 TD 25 -1 4 40
1909178N21288 1909 31 NA NA NOT_NAMED 1909-07-02 00:00:00 TS 31.6000 -84.3000 25 hurdat_atl main 0 0 O_____________ hurdat_atl AL031909 31.6000 -84.3000 TD 25 -1 5 49
1909178N21288 1909 31 NA NA NOT_NAMED 1909-07-02 03:00:00 TS 31.7651 -84.0502 main 0 0 P_____________ AL031909 31.7651 -84.0502 TD 25 -1 5 55
1909178N21288 1909 31 NA NA NOT_NAMED 1909-07-02 06:00:00 TS 31.9000 -83.8000 25 hurdat_atl main 0 0 O_____________ hurdat_atl AL031909 31.9000 -83.8000 TD 25 -1 4 60
1909178N21288 1909 31 NA NA NOT_NAMED 1909-07-02 09:00:00 TS 31.9573 -83.6647 main 0 0 P_____________ AL031909 31.9573 -83.6647 TD 25 -1 3 68
1909178N21288 1909 31 NA NA NOT_NAMED 1909-07-02 12:00:00 TS 32.0000 -83.5000 25 hurdat_atl main 0 0 O_____________ hurdat_atl AL031909 32.0000 -83.5000 TD 25 -1 4 71
1909178N21288 1909 31 NA NA NOT_NAMED 1909-07-02 15:00:00 TS 32.0923 -83.2100 main 0 0 P_____________ AL031909 32.0923 -83.2100 TD 25 -1 6 71
1909178N21288 1909 31 NA NA NOT_NAMED 1909-07-02 18:00:00 TS 32.2000 -82.8000 25 hurdat_atl main 0 0 O_____________ hurdat_atl AL031909 32.2000 -82.8000 TD 25 -1 8 74
1909178N21288 1909 31 NA NA NOT_NAMED 1909-07-02 21:00:00 TS 32.3152 -82.2728 main 0 0 P_____________ AL031909 32.3152 -82.2728 TD 25 -1 10 78
1909178N21288 1909 31 NA NA NOT_NAMED 1909-07-03 00:00:00 TS 32.4000 -81.7000 25 hurdat_atl main 0 0 O_____________ hurdat_atl AL031909 32.4000 -81.7000 TD 25 -1 9 83
1909178N21288 1909 31 NA NA NOT_NAMED 1909-07-03 03:00:00 TS 32.4222 -81.1924 main 0 0 P_____________ AL031909 32.4222 -81.1924 TD 27 -1 8 90
1909178N21288 1909 31 NA NA NOT_NAMED 1909-07-03 06:00:00 TS 32.4000 -80.7000 30 hurdat_atl main 0 0 O_____________ hurdat_atl AL031909 32.4000 -80.7000 TD 30 -1 8 94
1909178N21288 1909 31 NA NA NOT_NAMED 1909-07-03 09:00:00 TS 32.3719 -80.2303 main 14 14 P_____________ AL031909 32.3719 -80.2303 TD 30 -1 8 97
1909178N21288 1909 31 NA NA NOT_NAMED 1909-07-03 12:00:00 TS 32.3000 -79.7000 30 hurdat_atl main 43 43 O_____________ hurdat_atl AL031909 32.3000 -79.7000 TD 30 -1 10 101
1909178N21288 1909 31 NA NA NOT_NAMED 1909-07-03 15:00:00 TS 32.1802 -79.0226 main 96 96 P_____________ AL031909 32.1802 -79.0226 TD 30 -1 12 104
1909178N21288 1909 31 NA NA NOT_NAMED 1909-07-03 18:00:00 TS 32.0000 -78.3000 30 hurdat_atl main 151 151 O_____________ hurdat_atl AL031909 32.0000 -78.3000 TD 30 -1 12 110
1909178N21288 1909 31 NA NA NOT_NAMED 1909-07-03 21:00:00 TS 31.7646 -77.6426 main 215 215 P_____________ AL031909 31.7646 -77.6426 TD 30 -1 12 114
1909178N21288 1909 31 NA NA NOT_NAMED 1909-07-04 00:00:00 TS 31.5000 -77.0000 30 hurdat_atl main 280 280 O_____________ hurdat_atl AL031909 31.5000 -77.0000 TD 30 -1 12 114
1909178N21288 1909 31 NA NA NOT_NAMED 1909-07-04 03:00:00 TS 31.2648 -76.3431 main 330 330 P_____________ AL031909 31.2648 -76.3431 TD 30 -1 12 114
1909178N21288 1909 31 NA NA NOT_NAMED 1909-07-04 06:00:00 TS 31.0000 -75.7000 30 hurdat_atl main 388 388 O_____________ hurdat_atl AL031909 31.0000 -75.7000 TD 30 -1 12 119
1909178N21288 1909 31 NA NA NOT_NAMED 1909-07-04 09:00:00 TS 30.6645 -75.1003 main 448 448 P_____________ AL031909 30.6645 -75.1003 TD 30 -1 12 124
1909178N21288 1909 31 NA NA NOT_NAMED 1909-07-04 12:00:00 TS 30.3000 -74.5000 30 hurdat_atl main 519 519 O_____________ hurdat_atl AL031909 30.3000 -74.5000 TD 30 -1 13 124
1909178N21288 1909 31 NA NA NOT_NAMED 1909-07-04 15:00:00 TS 29.9458 -73.8616 main 588 588 P_____________ AL031909 29.9458 -73.8616 TD 30 -1 13 122
1909178N21288 1909 31 NA NA NOT_NAMED 1909-07-04 18:00:00 TS 29.6000 -73.2000 30 hurdat_atl main 647 O_____________ hurdat_atl AL031909 29.6000 -73.2000 TD 30 -1 13 121

About IBTrACS Database

This database is a web-friendly format of International Best Track Archive for Climate Stewardship (IBTrACS), a global best track data archive curated by NOAA dating back to 1842.

Updated: 2021-12-03